Time;durP1;ratioP1;P1;durP2;ratioP2;P2;SDS_P1;SDS_P2;PMS_P1;PMS_P2;Temp;Humidity;BMP_temperature;BMP_pressure;BME280_temperature;BME280_humidity;BME280_pressure;Samples;Min_cycle;Max_cycle;Signal;HPM_P1;HPM_P2
2021/09/04 00:00:13;;;;;;;32.83;22.77;;;;;;;13.34;94.15;101714.34;2081970;28;20466;-60
2021/09/04 00:01:13;;;;;;;32.67;23.27;;;;;;;13.32;93.69;101716.19;2081273;28;20029;-61
2021/09/04 00:02:13;;;;;;;37.50;25.03;;;;;;;13.33;94.07;101712.66;2081341;28;20025;-60
2021/09/04 00:03:13;;;;;;;42.10;24.47;;;;;;;13.32;94.23;101710.09;2082028;28;20025;-60
2021/09/04 00:04:14;;;;;;;38.93;24.30;;;;;;;13.33;94.34;101712.66;2081242;28;20091;-61
2021/09/04 00:05:14;;;;;;;37.07;23.27;;;;;;;13.31;93.96;101709.22;2081263;28;20096;-60
2021/09/04 00:06:14;;;;;;;36.20;25.03;;;;;;;13.30;94.02;101707.53;2081871;28;20471;-60
2021/09/04 00:07:15;;;;;;;43.80;24.90;;;;;;;13.29;94.02;101708.44;2082018;28;20352;-60
2021/09/04 00:08:15;;;;;;;40.53;25.60;;;;;;;13.28;93.80;101714.63;2081933;28;20025;-60
2021/09/04 00:09:15;;;;;;;36.70;25.07;;;;;;;13.26;93.59;101717.28;2081823;28;20025;-60
2021/09/04 00:10:15;;;;;;;43.63;26.97;;;;;;;13.25;94.18;101709.47;2081857;28;20041;-59
2021/09/04 00:11:16;;;;;;;43.77;27.77;;;;;;;13.24;93.90;101707.78;2081889;28;20120;-59
2021/09/04 00:12:16;;;;;;;44.33;28.02;;;;;;;13.22;93.78;101709.59;2081881;28;20021;-59
2021/09/04 00:13:16;;;;;;;40.23;26.97;;;;;;;13.22;93.43;101712.22;2081776;28;20025;-60
2021/09/04 00:14:17;;;;;;;48.37;29.80;;;;;;;13.20;93.86;101711.41;2081932;28;20075;-60
2021/09/04 00:15:17;;;;;;;46.70;27.63;;;;;;;13.22;93.63;101710.47;2081843;28;20075;-60
2021/09/04 00:16:17;;;;;;;47.67;27.73;;;;;;;13.21;93.66;101707.91;2082166;28;20033;-61
2021/09/04 00:17:18;;;;;;;42.00;27.10;;;;;;;13.21;93.98;101710.53;2090202;28;20036;-60
2021/09/04 00:18:19;;;;;;;42.22;27.58;;;;;;;13.19;94.20;101704.47;2090135;28;20024;-59
2021/09/04 00:19:19;;;;;;;44.77;28.90;;;;;;;13.18;94.20;101708.00;2090120;28;20040;-60
2021/09/04 00:20:20;;;;;;;45.33;27.30;;;;;;;13.16;94.47;101705.47;2090004;28;20044;-60
2021/09/04 00:21:20;;;;;;;42.70;27.75;;;;;;;13.16;94.36;101700.22;2090138;28;20025;-60
2021/09/04 00:22:20;;;;;;;41.73;26.60;;;;;;;13.15;94.31;101709.00;2090113;28;20025;-61
2021/09/04 00:23:21;;;;;;;42.30;25.70;;;;;;;13.12;93.97;101709.97;2090095;28;20028;-60
2021/09/04 00:24:21;;;;;;;40.20;26.37;;;;;;;13.11;94.14;101702.19;2090042;28;20021;-60
2021/09/04 00:25:21;;;;;;;35.33;24.90;;;;;;;13.07;93.61;101706.66;2089228;28;20579;-60
2021/09/04 00:26:24;;;;;;;40.67;25.05;;;;;;;13.05;93.99;101708.50;2089508;28;20021;-61
2021/09/04 00:27:25;;;;;;;36.50;23.20;;;;;;;13.05;93.70;101703.25;2090051;28;20017;-60
2021/09/04 00:28:25;;;;;;;38.60;24.30;;;;;;;13.05;93.61;101703.25;2090076;28;20033;-60
2021/09/04 00:29:26;;;;;;;40.87;25.00;;;;;;;13.05;94.48;101703.25;2090081;28;20405;-60
2021/09/04 00:30:26;;;;;;;39.95;24.60;;;;;;;13.04;93.97;101701.56;2090092;28;20052;-59
2021/09/04 00:31:27;;;;;;;38.92;22.45;;;;;;;13.03;94.50;101710.31;2090041;28;20079;-60
2021/09/04 00:32:27;;;;;;;35.63;22.53;;;;;;;13.04;94.33;101704.19;2081240;28;20498;-59
2021/09/04 00:33:27;;;;;;;38.77;24.23;;;;;;;13.03;94.26;101705.06;2081264;28;20028;-61
2021/09/04 00:34:28;;;;;;;40.50;23.83;;;;;;;13.00;94.55;101705.19;2081106;28;20044;-60
2021/09/04 00:35:28;;;;;;;37.30;23.10;;;;;;;13.00;94.24;101699.94;2081189;28;20282;-60
2021/09/04 00:36:28;;;;;;;37.73;22.40;;;;;;;12.98;94.61;101699.19;2089984;28;20104;-60
2021/09/04 00:37:28;;;;;;;38.77;23.00;;;;;;;12.98;94.64;101702.66;2090003;28;20394;-60
2021/09/04 00:38:28;;;;;;;37.10;22.83;;;;;;;12.97;94.07;101700.09;2090066;28;20389;-60
2021/09/04 00:39:29;;;;;;;38.73;23.90;;;;;;;12.96;94.50;101701.84;2090089;28;20025;-60
2021/09/04 00:40:30;;;;;;;33.57;22.57;;;;;;;12.96;94.34;101703.59;2089985;28;20029;-60
2021/09/04 00:41:34;;;;;;;39.53;24.70;;;;;;;12.95;94.71;101699.28;2090065;28;20470;-61
2021/09/04 00:42:34;;;;;;;34.45;21.60;;;;;;;12.93;94.24;101703.75;2089978;28;20020;-60
2021/09/04 00:43:35;;;;;;;36.40;23.80;;;;;;;12.93;94.81;101703.75;2090765;28;20017;-61
2021/09/04 00:44:35;;;;;;;37.97;22.07;;;;;;;12.93;94.79;101699.34;2091714;28;20104;-60
2021/09/04 00:45:35;;;;;;;34.10;21.00;;;;;;;12.92;94.81;101696.78;2091619;28;20028;-60
2021/09/04 00:46:35;;;;;;;36.27;22.40;;;;;;;12.90;94.76;101698.63;2091603;28;20474;-60
2021/09/04 00:47:36;;;;;;;34.93;22.33;;;;;;;12.87;94.21;101695.19;2091674;28;20033;-60
2021/09/04 00:48:37;;;;;;;32.70;20.60;;;;;;;12.86;94.57;101696.13;2091595;28;20043;-60
2021/09/04 00:49:37;;;;;;;38.15;22.45;;;;;;;12.86;94.69;101701.34;2091522;28;20025;-61
2021/09/04 00:50:38;;;;;;;38.03;22.67;;;;;;;12.85;94.70;101701.41;2091611;28;20064;-60
2021/09/04 00:51:38;;;;;;;36.10;22.83;;;;;;;12.82;94.43;101702.38;2082700;28;20030;-60
2021/09/04 00:52:38;;;;;;;39.22;23.65;;;;;;;12.82;94.45;101696.28;2082773;28;20067;-61
2021/09/04 00:53:39;;;;;;;42.20;23.30;;;;;;;12.80;94.92;101698.94;2091635;28;20021;-60
2021/09/04 00:54:39;;;;;;;39.10;22.77;;;;;;;12.80;94.32;101695.50;2091606;28;20021;-60
2021/09/04 00:55:40;;;;;;;37.07;22.70;;;;;;;12.78;94.75;101700.78;2091540;28;20112;-60
2021/09/04 00:56:40;;;;;;;33.10;21.67;;;;;;;12.76;94.71;101697.38;2091618;28;20107;-60
2021/09/04 00:57:40;;;;;;;36.27;22.67;;;;;;;12.75;94.56;101695.66;2091518;28;20024;-60
2021/09/04 00:58:41;;;;;;;38.80;22.93;;;;;;;12.72;94.58;101690.53;2091624;28;20036;-60
2021/09/04 00:59:42;;;;;;;35.22;21.50;;;;;;;12.70;94.31;101693.22;2091501;28;20394;-60
2021/09/04 01:00:42;;;;;;;39.43;22.10;;;;;;;12.69;94.60;101688.06;2091535;28;20070;-59
2021/09/04 01:01:42;;;;;;;44.07;24.30;;;;;;;12.68;94.76;101686.34;2091431;28;20082;-60
2021/09/04 01:02:43;;;;;;;34.80;22.20;;;;;;;12.66;94.98;101686.38;2090803;28;20020;-59
2021/09/04 01:03:43;;;;;;;35.83;21.50;;;;;;;12.66;94.64;101680.31;2090937;28;20406;-60
2021/09/04 01:04:43;;;;;;;33.07;21.63;;;;;;;12.67;94.83;101682.00;2091489;28;20398;-60
2021/09/04 01:05:47;;;;;;;37.60;22.27;;;;;;;12.66;94.96;101688.16;2090676;28;20657;-60
2021/09/04 01:06:48;;;;;;;36.50;23.13;;;;;;;12.66;94.66;101691.63;2090890;28;20052;-61
2021/09/04 01:07:49;;;;;;;34.38;22.05;;;;;;;12.64;94.48;101676.88;2091515;28;20025;-60
2021/09/04 01:08:49;;;;;;;36.28;21.75;;;;;;;12.64;94.81;101692.59;2091426;28;20036;-59
2021/09/04 01:09:49;;;;;;;35.87;21.47;;;;;;;12.60;94.72;101692.69;2090808;28;20057;-60
2021/09/04 01:10:51;;;;;;;37.00;23.93;;;;;;;12.61;94.93;101689.19;2090879;28;20055;-60
2021/09/04 01:11:52;;;;;;;40.42;23.25;;;;;;;12.60;95.14;101691.88;2091431;28;20024;-59
2021/09/04 01:12:53;;;;;;;;;;;;;;;12.58;94.79;101686.69;2082964;28;20022;-62
2021/09/04 01:13:53;;;;;;;33.38;19.85;;;;;;;12.59;95.00;101691.00;2082518;28;19908;-60
2021/09/04 01:14:54;;;;;;;31.20;20.40;;;;;;;12.58;94.49;101689.31;2091456;28;20029;-60
2021/09/04 01:15:54;;;;;;;36.25;22.48;;;;;;;12.58;95.01;101689.31;2091400;28;20029;-61
2021/09/04 01:16:54;;;;;;;35.40;22.15;;;;;;;12.58;94.79;101689.31;2091289;28;20084;-61
2021/09/04 01:17:54;;;;;;;30.87;20.43;;;;;;;12.56;94.99;101687.66;2091355;28;20035;-60
2021/09/04 01:18:55;;;;;;;38.87;21.90;;;;;;;12.55;94.46;101694.66;2091423;28;20025;-59
2021/09/04 01:19:56;;;;;;;38.77;21.00;;;;;;;12.53;94.69;101690.38;2091369;28;20032;-60
2021/09/04 01:21:01;;;;;;;38.70;20.70;;;;;;;12.52;95.13;101689.53;2091350;28;20013;-60
2021/09/04 01:22:01;;;;;;;33.22;20.98;;;;;;;12.52;94.65;101688.69;2091394;28;20060;-59
2021/09/04 01:23:02;;;;;;;38.43;22.87;;;;;;;12.51;94.51;101690.44;2091416;28;20017;-60
2021/09/04 01:24:04;;;;;;;33.15;20.83;;;;;;;12.51;94.94;101686.97;2091346;28;20025;-60
2021/09/04 01:25:07;;;;;;;33.47;22.05;;;;;;;12.50;95.25;101691.38;2091450;28;20029;-61
2021/09/04 01:26:10;;;;;;;35.70;22.52;;;;;;;12.47;94.56;101687.09;2091213;28;20031;-59
2021/09/04 01:27:11;;;;;;;36.63;22.73;;;;;;;12.46;94.59;101684.53;2091311;28;20434;-60
2021/09/04 01:28:11;;;;;;;42.63;21.70;;;;;;;12.46;94.87;101692.38;2091308;28;20024;-60
2021/09/04 01:29:11;;;;;;;33.93;22.03;;;;;;;12.43;94.82;101680.28;2091283;28;20052;-61
2021/09/04 01:30:12;;;;;;;39.00;22.33;;;;;;;12.44;94.71;101694.19;2091352;28;20108;-61
2021/09/04 01:31:12;;;;;;;35.33;21.45;;;;;;;12.41;94.84;101676.84;2091335;28;20458;-60
2021/09/04 01:32:12;;;;;;;36.30;21.83;;;;;;;12.42;95.03;101689.00;2091340;28;20028;-60
2021/09/04 01:33:13;;;;;;;34.50;20.40;;;;;;;12.41;94.91;101686.44;2091355;28;20020;-61
2021/09/04 01:34:13;;;;;;;36.05;22.60;;;;;;;12.39;94.92;101685.66;2091282;28;20475;-60
2021/09/04 01:35:22;;;;;;;36.30;21.77;;;;;;;12.38;94.93;101679.56;2091244;28;20023;-61
2021/09/04 01:36:33;;;;;;;40.38;22.63;;;;;;;12.38;94.77;101681.34;2091208;28;20020;-60
2021/09/04 01:37:34;;;;;;;35.95;21.90;;;;;;;12.34;94.88;101678.84;2091182;28;20052;-60
2021/09/04 01:38:35;;;;;;;36.88;20.35;;;;;;;12.35;95.57;101677.06;2091158;28;20548;-61
2021/09/04 01:39:35;;;;;;;34.80;20.93;;;;;;;12.33;94.99;101674.53;2091092;28;20043;-60
2021/09/04 01:40:35;;;;;;;40.70;22.33;;;;;;;12.33;95.43;101678.88;2091257;28;20314;-60
2021/09/04 01:41:38;;;;;;;35.40;21.57;;;;;;;12.31;95.18;101673.72;2091315;28;20457;-60
2021/09/04 01:42:39;;;;;;;36.78;21.20;;;;;;;12.30;95.60;101668.53;2091136;28;20508;-60
2021/09/04 01:43:39;;;;;;;;;;;;;;;12.30;95.18;101668.53;2091634;28;20033;-60
2021/09/04 01:44:39;;;;;;;32.03;20.20;;;;;;;12.27;95.45;101664.25;2091247;28;20358;-60
2021/09/04 01:45:40;;;;;;;35.03;20.10;;;;;;;12.27;95.39;101664.25;2091180;28;20025;-60
2021/09/04 01:46:40;;;;;;;39.60;22.63;;;;;;;12.28;95.19;101665.97;2091265;28;20444;-61
2021/09/04 01:47:40;;;;;;;37.30;20.63;;;;;;;12.26;95.51;101662.56;2091279;28;20032;-61
2021/09/04 01:48:40;;;;;;;35.40;21.53;;;;;;;12.25;94.82;101660.00;2082418;28;20029;-60
2021/09/04 01:49:41;;;;;;;34.57;21.27;;;;;;;12.23;95.51;101657.44;2082472;28;20025;-60
2021/09/04 01:50:41;;;;;;;39.47;21.33;;;;;;;12.23;95.43;101668.78;2091052;28;20029;-60
2021/09/04 01:51:41;;;;;;;39.83;21.83;;;;;;;12.23;95.72;101665.28;2091206;28;20021;-60
2021/09/04 01:52:44;;;;;;;38.63;23.70;;;;;;;12.22;95.00;101666.19;2091177;28;20481;-60
2021/09/04 01:53:44;;;;;;;35.95;22.55;;;;;;;12.21;95.17;101659.25;2082228;28;20029;-61
2021/09/04 01:54:44;;;;;;;34.67;21.70;;;;;;;12.21;95.85;101667.09;2081999;28;20053;-60
2021/09/04 01:55:45;;;;;;;37.37;21.63;;;;;;;12.19;95.60;101661.06;2091091;28;20021;-60
2021/09/04 01:56:45;;;;;;;32.77;20.80;;;;;;;12.20;95.59;101657.53;2091153;28;20544;-60
2021/09/04 01:57:45;;;;;;;37.77;21.70;;;;;;;12.19;95.44;101661.06;2091093;28;20501;-59
2021/09/04 01:58:47;;;;;;;37.95;22.90;;;;;;;12.17;95.69;101655.03;2091126;28;20021;-60
2021/09/04 01:59:47;;;;;;;39.38;21.27;;;;;;;12.16;95.86;101656.81;2091044;28;20021;-60
2021/09/04 02:00:47;;;;;;;40.17;22.30;;;;;;;12.16;95.37;101655.94;2090401;28;20398;-61
2021/09/04 02:01:47;;;;;;;39.20;22.23;;;;;;;12.14;95.52;101652.53;2090492;28;20091;-60
2021/09/04 02:02:48;;;;;;;35.47;22.47;;;;;;;12.13;95.26;101651.69;2091012;28;20389;-60
2021/09/04 02:03:48;;;;;;;35.97;19.77;;;;;;;12.12;96.06;101654.34;2091094;28;20094;-60
2021/09/04 02:04:48;;;;;;;36.87;22.60;;;;;;;12.09;96.12;101658.81;2091025;28;20078;-60
2021/09/04 02:05:48;;;;;;;31.30;20.73;;;;;;;12.08;96.27;101654.44;2090969;28;20021;-60
2021/09/04 02:06:49;;;;;;;34.83;21.60;;;;;;;12.08;96.35;101657.06;2091029;28;20505;-60
2021/09/04 02:07:49;;;;;;;33.43;20.73;;;;;;;12.05;96.19;101654.53;2090432;28;20053;-60
2021/09/04 02:08:49;;;;;;;36.47;21.90;;;;;;;12.04;96.37;101652.81;2090439;28;20033;-60
2021/09/04 02:09:50;;;;;;;38.10;20.77;;;;;;;12.03;95.51;101661.59;2091069;28;20032;-60
2021/09/04 02:10:50;;;;;;;35.93;22.10;;;;;;;12.03;95.68;101658.97;2090962;28;20033;-60
2021/09/04 02:11:50;;;;;;;33.93;22.37;;;;;;;12.03;96.03;101653.75;2090955;28;20108;-60
2021/09/04 02:12:50;;;;;;;35.70;22.30;;;;;;;12.01;96.26;101652.94;2090940;28;20029;-59
2021/09/04 02:13:51;;;;;;;39.00;21.07;;;;;;;12.01;96.00;101657.31;2091005;28;20052;-60
2021/09/04 02:14:52;;;;;;;35.37;21.40;;;;;;;12.00;96.67;101648.63;2090885;28;20390;-61
2021/09/04 02:15:52;;;;;;;33.20;20.98;;;;;;;11.99;96.63;101652.16;2082022;28;20025;-60
2021/09/04 02:16:52;;;;;;;41.53;20.30;;;;;;;11.97;96.44;101648.72;2081996;28;20135;-60
2021/09/04 02:17:53;;;;;;;33.42;21.25;;;;;;;11.94;96.01;101641.84;2090921;28;20017;-61
2021/09/04 02:18:53;;;;;;;35.37;21.30;;;;;;;11.94;96.11;101648.84;2090945;28;20107;-59
2021/09/04 02:19:53;;;;;;;40.73;22.60;;;;;;;11.93;96.27;101645.38;2090924;28;20543;-59
2021/09/04 02:20:53;;;;;;;37.27;20.47;;;;;;;11.92;95.96;101645.41;2090923;28;20100;-60
2021/09/04 02:21:54;;;;;;;34.97;21.33;;;;;;;11.90;96.31;101639.41;2090255;28;20100;-60
2021/09/04 02:22:54;;;;;;;34.80;20.07;;;;;;;11.89;96.54;101640.28;2090334;28;20517;-61
2021/09/04 02:23:54;;;;;;;35.83;20.10;;;;;;;11.88;96.12;101642.06;2090887;28;20032;-60
2021/09/04 02:24:54;;;;;;;32.90;20.80;;;;;;;11.88;96.31;101642.06;2090979;28;20155;-60
2021/09/04 02:25:55;;;;;;;33.27;20.60;;;;;;;11.88;96.54;101638.59;2090782;28;20072;-60
2021/09/04 02:26:56;;;;;;;35.93;20.47;;;;;;;11.85;95.98;101634.31;2090850;28;20563;-60
2021/09/04 02:27:56;;;;;;;;;;;;;;;11.84;96.13;101638.69;2091219;28;20029;-60
2021/09/04 02:28:58;;;;;;;35.13;19.97;;;;;;;11.84;96.02;101637.84;2090914;28;19944;-60
2021/09/04 02:29:58;;;;;;;39.28;20.70;;;;;;;11.82;96.92;101637.91;2090849;28;20073;-60
2021/09/04 02:30:58;;;;;;;32.45;20.08;;;;;;;11.81;96.13;101644.03;2090151;28;20490;-60
2021/09/04 02:31:59;;;;;;;37.00;20.03;;;;;;;11.81;96.64;101646.63;2090298;28;20107;-60
2021/09/04 02:32:59;;;;;;;33.72;19.50;;;;;;;11.79;96.47;101645.84;2090853;28;20021;-60
2021/09/04 02:34:00;;;;;;;31.67;20.03;;;;;;;11.79;96.45;101637.13;2090830;28;20024;-60
2021/09/04 02:35:00;;;;;;;35.60;20.63;;;;;;;11.78;96.33;101646.78;2090790;28;20025;-60
2021/09/04 02:36:01;;;;;;;35.88;20.83;;;;;;;11.77;96.74;101645.03;2090700;28;20031;-59
2021/09/04 02:37:01;;;;;;;30.80;19.37;;;;;;;11.77;96.39;101645.03;2090830;28;20025;-60
2021/09/04 02:38:02;;;;;;;32.63;20.80;;;;;;;11.77;96.53;101645.03;2090767;28;20032;-60
2021/09/04 02:39:03;;;;;;;31.80;19.63;;;;;;;11.76;96.39;101648.56;2090738;28;20025;-60
2021/09/04 02:40:05;;;;;;;34.90;20.35;;;;;;;11.77;96.31;101647.66;2090907;28;20103;-61
2021/09/04 02:41:05;;;;;;;38.92;21.63;;;;;;;11.77;96.58;101650.28;2090679;28;20043;-60
2021/09/04 02:42:06;;;;;;;35.67;20.67;;;;;;;11.75;96.01;101641.63;2090801;28;20362;-60
2021/09/04 02:43:07;;;;;;;46.35;22.25;;;;;;;11.74;96.35;101639.94;2090700;28;20037;-60
2021/09/04 02:44:07;;;;;;;35.03;20.88;;;;;;;11.73;96.32;101638.22;2090699;28;20041;-60
2021/09/04 02:45:08;;;;;;;35.00;21.03;;;;;;;11.74;96.74;101642.56;2090661;28;20025;-60
2021/09/04 02:46:09;;;;;;;37.55;20.35;;;;;;;11.74;96.55;101639.94;2090756;28;20096;-60
2021/09/04 02:47:09;;;;;;;39.92;21.77;;;;;;;11.74;96.89;101642.56;2090058;28;20025;-60
2021/09/04 02:48:10;;;;;;;35.40;20.90;;;;;;;11.74;96.97;101639.94;2090133;28;20025;-60
2021/09/04 02:49:10;;;;;;;34.83;20.60;;;;;;;11.72;96.84;101642.59;2090707;28;20043;-59
2021/09/04 02:50:10;;;;;;;41.17;21.70;;;;;;;11.73;97.02;101638.22;2090662;28;20096;-59
2021/09/04 02:51:11;;;;;;;32.73;20.63;;;;;;;11.72;97.00;101641.75;2090580;28;20058;-59
2021/09/04 02:52:11;;;;;;;36.83;20.17;;;;;;;11.71;96.53;101635.63;2090642;28;20341;-60
2021/09/04 02:53:11;;;;;;;35.77;20.33;;;;;;;11.70;97.38;101644.41;2090630;28;20104;-60
2021/09/04 02:54:12;;;;;;;34.80;21.00;;;;;;;11.70;96.58;101638.31;2090638;28;20021;-60
2021/09/04 02:55:12;;;;;;;31.20;20.07;;;;;;;11.68;96.72;101645.38;2090638;28;20085;-60
2021/09/04 02:56:12;;;;;;;33.07;17.87;;;;;;;11.67;96.99;101641.88;2090626;28;20092;-61
2021/09/04 02:57:12;;;;;;;36.00;21.93;;;;;;;11.66;96.73;101642.81;2089913;28;20025;-59
2021/09/04 02:58:13;;;;;;;33.00;19.90;;;;;;;11.66;97.06;101647.16;2081763;28;20052;-60
2021/09/04 02:59:13;;;;;;;40.50;19.80;;;;;;;11.65;96.98;101650.69;2081812;28;20017;-60
2021/09/04 03:00:14;;;;;;;31.67;20.50;;;;;;;11.63;96.95;101642.06;2090512;28;20021;-60
2021/09/04 03:01:14;;;;;;;36.75;21.23;;;;;;;11.62;97.00;101646.44;2089922;28;20359;-60
2021/09/04 03:02:15;;;;;;;37.00;20.93;;;;;;;11.62;97.20;101645.56;2090069;28;20059;-60
2021/09/04 03:03:15;;;;;;;41.30;23.70;;;;;;;11.61;96.72;101643.88;2090528;28;20526;-59
2021/09/04 03:04:15;;;;;;;36.70;19.73;;;;;;;11.59;97.07;101636.94;2090588;28;20039;-60
2021/09/04 03:05:16;;;;;;;36.43;19.83;;;;;;;11.58;96.70;101634.38;2089863;28;20087;-60
2021/09/04 03:06:16;;;;;;;35.95;19.88;;;;;;;11.56;97.13;101634.41;2089274;28;20028;-59
2021/09/04 03:07:16;;;;;;;34.93;19.83;;;;;;;11.57;96.99;101633.50;2090585;28;20070;-60
2021/09/04 03:08:16;;;;;;;35.57;21.70;;;;;;;11.57;97.00;101638.72;2090572;28;20017;-60
2021/09/04 03:09:17;;;;;;;28.63;19.10;;;;;;;11.56;96.53;101637.03;2090470;28;20044;-60
2021/09/04 03:10:17;;;;;;;29.77;19.10;;;;;;;11.56;96.87;101631.81;2090515;28;20514;-60
2021/09/04 03:11:18;;;;;;;36.13;19.50;;;;;;;11.56;96.76;101630.94;2081604;28;20104;-60
2021/09/04 03:12:18;;;;;;;41.53;20.90;;;;;;;11.56;97.12;101636.16;2081723;28;20032;-60
2021/09/04 03:13:18;;;;;;;30.17;19.43;;;;;;;11.54;96.80;101628.41;2090478;28;20032;-59
2021/09/04 03:14:19;;;;;;;34.60;21.10;;;;;;;11.53;96.81;101631.91;2090492;28;20279;-60
2021/09/04 03:15:19;;;;;;;35.03;20.90;;;;;;;11.54;96.75;101635.38;2089757;28;20479;-60
2021/09/04 03:16:20;;;;;;;34.47;21.45;;;;;;;11.51;96.53;101633.72;2089771;28;20028;-60
2021/09/04 03:17:20;;;;;;;38.83;20.77;;;;;;;11.51;96.83;101633.72;2090459;28;20016;-60
2021/09/04 03:18:20;;;;;;;35.33;21.13;;;;;;;11.49;96.88;101635.53;2090488;28;20020;-60
2021/09/04 03:19:21;;;;;;;34.83;20.93;;;;;;;11.47;97.01;101624.28;2090461;28;20096;-59
2021/09/04 03:20:21;;;;;;;35.45;20.23;;;;;;;11.47;97.55;101629.50;2089744;28;20013;-59
2021/09/04 03:21:22;;;;;;;34.17;19.90;;;;;;;11.44;96.80;101627.88;2089900;28;20036;-60
2021/09/04 03:22:22;;;;;;;38.77;21.87;;;;;;;11.46;96.86;101630.41;2081531;28;20052;-60
2021/09/04 03:23:22;;;;;;;38.23;19.50;;;;;;;11.44;96.89;101630.47;2081537;28;20048;-60
2021/09/04 03:24:22;;;;;;;38.50;20.97;;;;;;;11.46;97.00;101630.41;2081532;28;20026;-60
2021/09/04 03:25:23;;;;;;;37.00;19.87;;;;;;;11.45;96.59;101629.56;2081538;28;20049;-61
2021/09/04 03:26:23;;;;;;;33.37;19.33;;;;;;;11.44;97.50;101632.22;2090327;28;20048;-59
2021/09/04 03:27:23;;;;;;;33.03;19.03;;;;;;;11.45;96.98;101633.91;2090352;28;20025;-60
2021/09/04 03:28:23;;;;;;;33.50;19.80;;;;;;;11.43;97.61;101626.13;2090353;28;20025;-60
2021/09/04 03:29:24;;;;;;;36.00;20.30;;;;;;;11.45;96.66;101628.69;2090393;28;20044;-60
2021/09/04 03:30:24;;;;;;;39.73;21.70;;;;;;;11.45;97.09;101639.16;2090318;28;20029;-59
2021/09/04 03:31:24;;;;;;;34.17;19.00;;;;;;;11.44;97.00;101634.84;2090373;28;20025;-60
2021/09/04 03:32:25;;;;;;;31.57;20.07;;;;;;;11.44;96.81;101637.44;2090337;28;20044;-59
2021/09/04 03:33:25;;;;;;;39.67;21.57;;;;;;;11.44;97.03;101632.22;2090337;28;20056;-61
2021/09/04 03:34:25;;;;;;;31.03;18.83;;;;;;;11.45;97.07;101636.53;2090359;28;20370;-60
2021/09/04 03:35:26;;;;;;;34.13;20.37;;;;;;;11.45;97.32;101640.00;2089689;28;20012;-60
2021/09/04 03:36:26;;;;;;;37.30;19.73;;;;;;;11.46;97.12;101646.06;2089806;28;20490;-60
2021/09/04 03:37:26;;;;;;;35.27;19.40;;;;;;;11.48;96.97;101644.28;2090347;28;20104;-60
2021/09/04 03:38:27;;;;;;;33.73;18.33;;;;;;;11.48;97.02;101640.81;2090292;28;20371;-60
2021/09/04 03:39:27;;;;;;;31.90;18.63;;;;;;;11.49;97.11;101640.75;2090230;28;20046;-60
2021/09/04 03:40:27;;;;;;;39.63;21.77;;;;;;;11.51;97.58;101646.81;2090314;28;20029;-60
2021/09/04 03:41:28;;;;;;;34.93;18.70;;;;;;;11.54;97.58;101648.44;2090297;28;20021;-59
2021/09/04 03:42:28;;;;;;;33.13;18.43;;;;;;;11.56;97.83;101644.88;2090325;28;20098;-60
2021/09/04 03:43:28;;;;;;;40.33;19.23;;;;;;;11.58;97.11;101643.06;2090260;28;20100;-60
2021/09/04 03:44:28;;;;;;;31.33;19.13;;;;;;;11.61;97.09;101642.13;2090278;28;20478;-60
2021/09/04 03:45:29;;;;;;;35.60;20.03;;;;;;;11.62;97.18;101649.03;2090191;28;20367;-60
2021/09/04 03:46:29;;;;;;;32.40;19.23;;;;;;;11.65;97.60;101650.69;2090305;28;20021;-60
2021/09/04 03:47:30;;;;;;;36.67;19.77;;;;;;;11.66;97.20;101642.81;2090280;28;20024;-61
2021/09/04 03:48:30;;;;;;;39.25;20.95;;;;;;;11.69;97.68;101642.69;2089586;28;20021;-61
2021/09/04 03:49:30;;;;;;;37.70;19.90;;;;;;;11.72;97.98;101652.19;2089640;28;20025;-61
2021/09/04 03:50:31;;;;;;;37.23;21.23;;;;;;;11.76;97.49;101645.09;2090324;28;20033;-64
2021/09/04 03:51:31;;;;;;;32.20;19.83;;;;;;;11.76;97.33;101645.09;2090197;28;20025;-64
2021/09/04 03:52:31;;;;;;;39.13;21.80;;;;;;;11.78;97.35;101654.63;2090297;28;20466;-63
2021/09/04 03:53:33;;;;;;;38.90;21.97;;;;;;;11.80;97.75;101647.56;2090247;28;20025;-63
2021/09/04 03:54:33;;;;;;;34.72;18.50;;;;;;;11.83;97.84;101650.06;2090310;28;20040;-63
2021/09/04 03:55:33;;;;;;;39.17;21.60;;;;;;;11.84;98.01;101649.16;2090199;28;20025;-64
2021/09/04 03:56:34;;;;;;;37.87;22.20;;;;;;;11.85;97.39;101645.63;2090246;28;20028;-64
2021/09/04 03:57:34;;;;;;;36.43;20.20;;;;;;;11.89;97.51;101645.53;2090163;28;20094;-63
2021/09/04 03:58:34;;;;;;;37.33;21.20;;;;;;;11.92;97.43;101646.28;2090209;28;20023;-64
2021/09/04 03:59:34;;;;;;;30.60;18.60;;;;;;;11.93;97.61;101644.50;2090276;28;20025;-64
2021/09/04 04:00:35;;;;;;;38.50;19.77;;;;;;;11.95;97.65;101640.09;2090208;28;20025;-63
2021/09/04 04:01:35;;;;;;;37.10;20.97;;;;;;;11.96;97.55;101639.16;2081328;28;20021;-64
2021/09/04 04:02:35;;;;;;;38.57;22.27;;;;;;;11.97;97.62;101646.09;2081427;28;20049;-64
2021/09/04 04:03:36;;;;;;;34.70;21.80;;;;;;;11.98;97.17;101647.81;2090107;28;20546;-63
2021/09/04 04:04:36;;;;;;;40.87;21.97;;;;;;;11.97;97.14;101641.72;2090208;28;20028;-64
2021/09/04 04:05:36;;;;;;;38.47;21.40;;;;;;;11.97;97.48;101636.50;2090179;28;20021;-64
2021/09/04 04:06:36;;;;;;;45.03;23.90;;;;;;;11.99;97.20;101644.28;2090280;28;20474;-64
2021/09/04 04:07:37;;;;;;;35.13;20.60;;;;;;;11.99;97.07;101639.06;2090275;28;20032;-63
2021/09/04 04:08:37;;;;;;;37.30;20.10;;;;;;;11.97;96.75;101641.72;2090129;28;20025;-64
2021/09/04 04:09:38;;;;;;;36.33;20.70;;;;;;;11.99;97.58;101639.06;2090137;28;20025;-64
2021/09/04 04:10:38;;;;;;;36.22;22.50;;;;;;;12.00;96.98;101646.00;2081299;28;20095;-64
2021/09/04 04:11:39;;;;;;;41.30;20.20;;;;;;;12.01;96.83;101639.84;2081218;28;20040;-64
2021/09/04 04:12:40;;;;;;;41.45;23.30;;;;;;;12.03;96.88;101643.28;2081247;28;20291;-64
2021/09/04 04:13:40;;;;;;;;;;;;;;;12.05;97.24;101638.81;2081801;28;20103;-64
2021/09/04 04:14:41;;;;;;;41.33;22.75;;;;;;;12.05;96.91;101643.22;2090140;28;19916;-64
2021/09/04 04:15:41;;;;;;;41.40;22.90;;;;;;;12.04;96.45;101647.59;2090114;28;20048;-64
2021/09/04 04:16:41;;;;;;;38.60;22.73;;;;;;;12.03;96.73;101645.91;2090036;28;20053;-64
2021/09/04 04:17:41;;;;;;;41.23;22.43;;;;;;;12.04;96.64;101652.81;2091263;28;20031;-64
2021/09/04 04:18:42;;;;;;;39.43;22.83;;;;;;;12.03;96.79;101645.91;2091892;28;20033;-64
2021/09/04 04:19:42;;;;;;;43.80;23.37;;;;;;;12.05;96.87;101653.69;2091913;28;20033;-65
2021/09/04 04:20:42;;;;;;;41.37;25.03;;;;;;;12.06;97.14;101651.06;2091916;28;20470;-65
2021/09/04 04:21:42;;;;;;;40.27;24.33;;;;;;;12.06;96.91;101650.19;2091883;28;20064;-64
2021/09/04 04:22:43;;;;;;;37.67;22.67;;;;;;;12.09;96.42;101656.19;2091176;28;20031;-63
2021/09/04 04:23:43;;;;;;;42.63;23.57;;;;;;;12.09;96.72;101656.19;2091279;28;20070;-64
2021/09/04 04:24:43;;;;;;;39.50;24.00;;;;;;;12.13;96.60;101661.28;2091709;28;20029;-65
2021/09/04 04:25:43;;;;;;;45.03;24.80;;;;;;;12.13;96.42;101656.06;2091763;28;20083;-65
2021/09/04 04:26:43;;;;;;;41.43;23.03;;;;;;;12.13;96.93;101654.28;2091813;28;20375;-64
2021/09/04 04:27:44;;;;;;;39.43;22.73;;;;;;;12.15;96.74;101657.69;2082863;28;20057;-64
2021/09/04 04:28:44;;;;;;;39.27;21.80;;;;;;;12.17;96.95;101652.41;2074772;28;20066;-63
2021/09/04 04:29:44;;;;;;;44.63;24.57;;;;;;;12.19;96.74;101666.31;2083026;28;20021;-64
2021/09/04 04:30:45;;;;;;;46.93;26.27;;;;;;;12.18;96.47;101654.16;2091746;28;20021;-63
2021/09/04 04:31:45;;;;;;;43.47;23.77;;;;;;;12.19;96.50;101655.84;2091794;28;20489;-64
2021/09/04 04:32:46;;;;;;;48.90;25.87;;;;;;;12.21;96.19;101664.47;2091163;28;20025;-65
2021/09/04 04:33:46;;;;;;;40.23;24.20;;;;;;;12.19;95.87;101659.31;2082874;28;20128;-64
2021/09/04 04:34:46;;;;;;;43.73;23.60;;;;;;;12.20;96.06;101662.78;2082989;28;20036;-64